createdAt,value
2022-09-06T00:02:20.460Z,51.02
2022-09-06T00:04:49.054Z,51.01
2022-09-06T00:07:17.032Z,51.25
2022-09-06T00:09:44.911Z,51.27
2022-09-06T00:12:12.953Z,51.31
2022-09-06T00:14:42.301Z,51.27
2022-09-06T00:17:10.135Z,51.17
2022-09-06T00:19:38.089Z,51.39
2022-09-06T00:22:06.133Z,51.28
2022-09-06T00:24:34.054Z,51.22
2022-09-06T00:27:02.029Z,51.27
2022-09-06T00:29:30.078Z,51.23
2022-09-06T00:31:59.436Z,51.17
2022-09-06T00:34:28.046Z,51.75
2022-09-06T00:36:56.392Z,51.53
2022-09-06T00:39:24.510Z,51.65
2022-09-06T00:41:52.904Z,51.55
2022-09-06T00:44:20.946Z,51.52
2022-09-06T00:46:51.766Z,51.55
2022-09-06T00:49:26.077Z,51.51
2022-09-06T00:51:56.914Z,51.83
2022-09-06T00:54:25.554Z,51.81
2022-09-06T00:56:53.736Z,51.66
2022-09-06T00:59:21.975Z,51.91
2022-09-06T01:01:50.065Z,51.50
2022-09-06T01:04:18.132Z,51.61
2022-09-06T01:06:57.429Z,51.54
2022-09-06T01:09:43.901Z,51.21
2022-09-06T01:12:25.289Z,51.14
2022-09-06T01:15:07.284Z,51.05
2022-09-06T01:17:45.717Z,50.84
2022-09-06T01:20:36.253Z,50.88
2022-09-06T01:23:43.388Z,50.98
2022-09-06T01:26:31.803Z,50.84
2022-09-06T01:29:01.507Z,50.76
2022-09-06T01:31:36.490Z,50.96
2022-09-06T01:34:20.798Z,50.55
2022-09-06T01:37:09.417Z,50.06
2022-09-06T01:39:40.758Z,50.20
2022-09-06T01:42:13.376Z,50.21
2022-09-06T01:44:45.309Z,50.25
2022-09-06T01:47:25.211Z,50.18
2022-09-06T01:50:11.748Z,50.22
2022-09-06T01:52:53.215Z,50.14
2022-09-06T01:55:30.995Z,50.13
2022-09-06T01:58:17.671Z,50.08
2022-09-06T02:00:56.617Z,50.01
2022-09-06T02:03:30.856Z,50.01
2022-09-06T02:06:05.403Z,49.88
2022-09-06T02:08:38.209Z,49.84
2022-09-06T02:11:08.229Z,50.02
2022-09-06T02:13:40.615Z,49.74
2022-09-06T02:16:15.015Z,49.84
2022-09-06T02:18:47.694Z,49.83
2022-09-06T02:21:19.685Z,50.02
2022-09-06T02:23:48.724Z,49.77
2022-09-06T02:26:22.977Z,49.70
2022-09-06T02:28:51.253Z,49.41
2022-09-06T02:31:24.872Z,49.26
2022-09-06T02:33:53.893Z,49.50
2022-09-06T02:36:22.137Z,49.05
2022-09-06T02:38:50.925Z,49.27
2022-09-06T02:41:22.687Z,49.00
2022-09-06T02:43:51.302Z,49.16
2022-09-06T02:46:20.810Z,48.92
2022-09-06T02:48:48.760Z,49.00
2022-09-06T02:51:17.024Z,48.86
2022-09-06T02:53:45.001Z,48.54
2022-09-06T02:56:12.983Z,48.37
2022-09-06T02:58:41.260Z,48.02
2022-09-06T03:01:09.363Z,48.02
2022-09-06T03:03:39.045Z,47.88
2022-09-06T03:06:07.657Z,48.00
2022-09-06T03:08:36.581Z,47.57
2022-09-06T03:11:04.695Z,47.51
2022-09-06T03:13:32.744Z,47.46
2022-09-06T03:16:01.653Z,47.32
2022-09-06T03:18:31.273Z,47.14
2022-09-06T03:21:01.027Z,47.08
2022-09-06T03:23:30.227Z,46.80
2022-09-06T03:25:58.759Z,46.90
2022-09-06T03:28:27.078Z,47.00
2022-09-06T03:30:55.400Z,46.67
2022-09-06T03:33:23.749Z,46.60
2022-09-06T03:35:54.294Z,46.53
2022-09-06T03:38:24.510Z,46.45
2022-09-06T03:40:53.386Z,46.14
2022-09-06T03:43:23.333Z,46.30
2022-09-06T03:45:53.840Z,46.06
2022-09-06T03:48:23.305Z,45.81
2022-09-06T03:50:53.147Z,45.81
2022-09-06T03:53:23.671Z,45.59
2022-09-06T03:55:53.319Z,45.58
2022-09-06T03:58:22.956Z,45.53
2022-09-06T04:00:51.400Z,45.35
2022-09-06T04:03:20.272Z,45.22
2022-09-06T04:05:48.237Z,45.29
2022-09-06T04:08:17.447Z,45.41
2022-09-06T04:10:46.747Z,44.76
2022-09-06T04:13:14.663Z,44.87
2022-09-06T04:15:47.022Z,44.99
2022-09-06T04:18:14.921Z,44.76
2022-09-06T04:20:43.540Z,44.39
2022-09-06T04:23:11.595Z,44.69
2022-09-06T04:25:39.730Z,44.51
2022-09-06T04:28:09.033Z,44.45
2022-09-06T04:30:37.324Z,44.26
2022-09-06T04:33:05.481Z,44.12
2022-09-06T04:35:33.633Z,44.01
2022-09-06T04:38:01.992Z,44.33
2022-09-06T04:40:30.111Z,44.35
2022-09-06T04:42:59.042Z,44.06
2022-09-06T04:45:28.643Z,44.00
2022-09-06T04:47:56.772Z,44.05
2022-09-06T04:50:24.756Z,43.75
2022-09-06T04:52:55.366Z,43.89
2022-09-06T04:55:23.295Z,43.89
2022-09-06T04:57:51.475Z,43.89
2022-09-06T05:00:19.999Z,43.77
2022-09-06T05:02:49.665Z,43.60
2022-09-06T05:05:17.782Z,43.64
2022-09-06T05:07:45.906Z,43.87
2022-09-06T05:10:13.930Z,43.59
2022-09-06T05:12:44.265Z,43.39
2022-09-06T05:15:13.033Z,43.48
2022-09-06T05:17:41.107Z,43.54
2022-09-06T05:20:12.807Z,43.13
2022-09-06T05:22:41.537Z,43.64
2022-09-06T05:25:11.547Z,43.19
2022-09-06T05:27:39.675Z,43.11
2022-09-06T05:30:08.663Z,43.10
2022-09-06T05:32:36.655Z,43.02
2022-09-06T05:35:05.001Z,43.05
2022-09-06T05:37:34.314Z,42.82
2022-09-06T05:40:02.383Z,42.80
2022-09-06T05:42:30.635Z,43.08
2022-09-06T05:44:58.631Z,42.63
2022-09-06T05:47:26.581Z,42.54
2022-09-06T05:49:55.389Z,42.16
2022-09-06T05:52:23.378Z,42.09
2022-09-06T05:54:52.721Z,42.24
2022-09-06T05:57:20.901Z,42.15
2022-09-06T05:59:49.193Z,42.11
2022-09-06T06:02:17.205Z,42.00
2022-09-06T06:04:45.366Z,42.10
2022-09-06T06:07:13.313Z,41.88
2022-09-06T06:09:41.426Z,41.88
2022-09-06T06:12:11.270Z,41.99
2022-09-06T06:14:39.529Z,41.85
2022-09-06T06:17:07.794Z,41.88
2022-09-06T06:19:38.588Z,42.02
2022-09-06T06:22:06.598Z,41.58
2022-09-06T06:24:34.540Z,41.56
2022-09-06T06:27:02.678Z,41.84
2022-09-06T06:29:32.114Z,41.69
2022-09-06T06:32:00.297Z,42.18
2022-09-06T06:34:28.454Z,41.69
2022-09-06T06:36:56.376Z,41.75
2022-09-06T06:39:24.326Z,41.75
2022-09-06T06:41:52.361Z,41.56
2022-09-06T06:44:20.277Z,41.80
2022-09-06T06:46:49.562Z,41.88
2022-09-06T06:49:17.738Z,41.92
2022-09-06T06:51:45.709Z,42.08
2022-09-06T06:54:13.600Z,41.92
2022-09-06T06:56:42.462Z,41.95
2022-09-06T06:59:10.538Z,42.15
2022-09-06T07:01:39.208Z,41.99
2022-09-06T07:04:10.679Z,42.04
2022-09-06T07:12:26.197Z,42.06
2022-09-06T07:14:54.267Z,42.10
2022-09-06T07:17:22.194Z,41.83
2022-09-06T07:22:40.425Z,40.82
2022-09-06T07:25:09.745Z,41.60
2022-09-06T07:27:53.057Z,41.45
2022-09-06T07:30:21.039Z,41.16
2022-09-06T07:32:49.259Z,41.04
2022-09-06T07:35:20.629Z,41.70
2022-09-06T07:37:56.052Z,41.83
2022-09-06T07:40:24.411Z,42.42
2022-09-06T07:42:52.492Z,42.34
2022-09-06T07:45:20.687Z,41.93
2022-09-06T07:53:16.734Z,42.10
2022-09-06T07:55:49.746Z,42.32
2022-09-06T07:58:17.809Z,42.30
2022-09-06T08:00:45.838Z,42.14
2022-09-06T08:03:13.833Z,42.25
2022-09-06T08:11:20.117Z,42.22
2022-09-06T08:13:51.378Z,41.70
2022-09-06T08:16:20.304Z,41.87
2022-09-06T08:18:52.604Z,41.63
2022-09-06T08:21:23.987Z,41.44
2022-09-06T08:23:53.502Z,41.38
2022-09-06T08:26:23.946Z,41.02
2022-09-06T08:28:55.876Z,41.41
2022-09-06T08:31:24.100Z,41.13
2022-09-06T08:33:53.019Z,41.40
2022-09-06T08:36:22.655Z,41.44
2022-09-06T08:38:50.945Z,41.30
2022-09-06T08:41:25.725Z,41.01
2022-09-06T08:46:55.052Z,39.83
2022-09-06T08:49:23.833Z,39.97
2022-09-06T08:52:18.131Z,39.77
2022-09-06T08:54:54.416Z,40.07
2022-09-06T08:57:40.106Z,40.87
2022-09-06T09:00:12.673Z,41.31
2022-09-06T09:02:46.664Z,41.18
2022-09-06T09:05:25.860Z,41.15
2022-09-06T09:08:03.618Z,41.41
2022-09-06T09:10:36.100Z,41.25
2022-09-06T09:13:06.014Z,41.74
2022-09-06T09:15:40.362Z,41.46
2022-09-06T09:18:09.120Z,41.90
2022-09-06T09:20:39.108Z,42.12
2022-09-06T09:23:08.513Z,42.11
2022-09-06T09:25:39.685Z,42.40
2022-09-06T09:28:17.681Z,42.38
2022-09-06T09:30:49.723Z,42.87
2022-09-06T09:33:27.349Z,42.97
2022-09-06T09:35:56.352Z,43.37
2022-09-06T09:38:28.570Z,43.55
2022-09-06T09:40:58.902Z,43.79
2022-09-06T09:43:29.661Z,43.42
2022-09-06T09:46:16.107Z,43.73
2022-09-06T09:48:49.728Z,43.42
2022-09-06T09:51:27.053Z,43.63
2022-09-06T09:53:58.899Z,43.97
2022-09-06T09:56:35.319Z,43.68
2022-09-06T09:59:04.807Z,44.08
2022-09-06T10:01:34.223Z,44.24
2022-09-06T10:07:08.582Z,44.17
2022-09-06T10:09:40.848Z,43.97
2022-09-06T10:12:09.138Z,43.90
2022-09-06T10:14:43.279Z,44.16
2022-09-06T10:17:20.650Z,44.29
2022-09-06T10:19:49.004Z,44.41
2022-09-06T10:22:29.501Z,44.00
2022-09-06T10:25:29.734Z,43.70
2022-09-06T10:28:22.860Z,44.15
2022-09-06T10:35:05.711Z,43.66
2022-09-06T10:37:46.024Z,43.32
2022-09-06T10:40:28.031Z,43.28
2022-09-06T10:42:59.188Z,43.37
2022-09-06T10:45:39.555Z,43.29
2022-09-06T10:48:15.052Z,43.38
2022-09-06T10:50:49.421Z,43.31
2022-09-06T10:53:30.806Z,43.26
2022-09-06T10:56:06.414Z,43.77
2022-09-06T11:01:36.073Z,43.10
2022-09-06T11:04:12.802Z,43.06
2022-09-06T11:06:46.232Z,43.30
2022-09-06T11:09:21.865Z,42.77
2022-09-06T11:11:56.703Z,42.45
2022-09-06T11:14:28.327Z,42.65
2022-09-06T11:17:03.495Z,42.27
2022-09-06T11:19:39.685Z,42.36
2022-09-06T11:22:45.815Z,42.37
2022-09-06T11:25:42.548Z,42.30
2022-09-06T11:28:17.106Z,42.26
2022-09-06T11:30:47.891Z,41.98
2022-09-06T11:33:25.938Z,41.77
2022-09-06T11:35:55.531Z,41.46
2022-09-06T11:38:27.760Z,41.21
2022-09-06T11:41:02.118Z,41.28
2022-09-06T11:43:49.916Z,41.16
2022-09-06T11:46:54.167Z,41.32
2022-09-06T11:49:37.433Z,41.57
2022-09-06T11:52:43.972Z,41.58
2022-09-06T11:55:14.227Z,41.46
2022-09-06T11:57:44.098Z,41.50
2022-09-06T12:00:21.049Z,41.08
2022-09-06T12:02:49.012Z,41.24
2022-09-06T12:05:25.773Z,41.32
2022-09-06T12:08:36.439Z,41.85
2022-09-06T12:11:30.848Z,42.12
2022-09-06T12:14:05.698Z,42.33
2022-09-06T12:17:11.694Z,42.40
2022-09-06T12:19:46.072Z,42.53
2022-09-06T12:23:02.764Z,42.99
2022-09-06T12:25:58.501Z,42.56
2022-09-06T12:28:45.277Z,42.68
2022-09-06T12:31:38.120Z,42.39
2022-09-06T12:34:13.926Z,42.72
2022-09-06T12:37:01.357Z,42.79
2022-09-06T12:39:29.601Z,42.75
2022-09-06T12:42:00.787Z,42.17
2022-09-06T12:44:33.336Z,41.96
2022-09-06T12:47:07.620Z,42.28
2022-09-06T12:49:35.957Z,42.51
2022-09-06T12:52:12.765Z,42.31
2022-09-06T12:54:46.872Z,41.96
2022-09-06T12:57:19.108Z,41.83
2022-09-06T12:59:53.713Z,41.63
2022-09-06T13:02:27.996Z,41.61
2022-09-06T13:05:02.499Z,41.70
2022-09-06T13:07:35.349Z,41.83
2022-09-06T13:10:04.117Z,41.54
2022-09-06T13:12:35.423Z,41.60
2022-09-06T13:15:08.905Z,41.09
2022-09-06T13:17:38.400Z,41.24
2022-09-06T13:20:14.802Z,40.88
2022-09-06T13:22:46.211Z,41.07
2022-09-06T13:25:25.551Z,40.97
2022-09-06T13:27:58.050Z,41.22
2022-09-06T13:30:38.637Z,41.41
2022-09-06T13:33:08.930Z,41.36
2022-09-06T13:35:39.197Z,41.40
2022-09-06T13:38:34.409Z,41.36
2022-09-06T13:41:13.479Z,41.75
2022-09-06T13:43:44.966Z,41.56
2022-09-06T13:46:13.200Z,41.84
2022-09-06T13:48:43.107Z,42.06
2022-09-06T13:51:11.331Z,42.19
2022-09-06T13:53:40.613Z,42.76
2022-09-06T13:56:09.091Z,42.60
2022-09-06T13:58:37.043Z,42.60
2022-09-06T14:01:08.819Z,42.75
2022-09-06T14:03:39.234Z,42.77
2022-09-06T14:06:08.338Z,42.89
2022-09-06T14:08:56.320Z,43.52
2022-09-06T14:11:26.622Z,44.19
2022-09-06T14:13:55.043Z,44.02
2022-09-06T14:16:23.079Z,44.49
2022-09-06T14:18:52.098Z,44.43
2022-09-06T14:21:20.005Z,44.00
2022-09-06T14:23:51.758Z,43.60
2022-09-06T14:26:21.192Z,43.72
2022-09-06T14:28:51.070Z,43.57
2022-09-06T14:31:21.205Z,43.58
2022-09-06T14:33:49.800Z,43.76
2022-09-06T14:36:20.102Z,43.41
2022-09-06T14:38:49.071Z,43.57
2022-09-06T14:41:18.970Z,43.01
2022-09-06T14:43:53.351Z,42.89
2022-09-06T14:46:23.124Z,42.82
2022-09-06T14:48:58.217Z,42.72
2022-09-06T14:51:26.715Z,42.69
2022-09-06T14:53:57.343Z,42.45
2022-09-06T14:56:26.117Z,42.60
2022-09-06T14:58:57.575Z,42.55
2022-09-06T15:01:28.728Z,42.29
2022-09-06T15:03:58.507Z,42.04
2022-09-06T15:06:28.323Z,41.90
2022-09-06T15:08:59.444Z,42.28
2022-09-06T15:11:34.515Z,41.96
2022-09-06T15:14:05.658Z,41.69
2022-09-06T15:16:34.334Z,41.68
2022-09-06T15:19:03.111Z,41.37
2022-09-06T15:21:32.565Z,41.28
2022-09-06T15:24:02.061Z,41.27
2022-09-06T15:26:30.629Z,41.35
2022-09-06T15:28:59.117Z,41.17
2022-09-06T15:31:28.575Z,41.33
2022-09-06T15:33:58.122Z,41.26
2022-09-06T15:36:27.611Z,41.22
2022-09-06T15:38:59.573Z,41.35
2022-09-06T15:41:29.721Z,41.53
2022-09-06T15:43:59.605Z,41.62
2022-09-06T15:46:53.253Z,41.46
2022-09-06T15:49:27.470Z,41.71
2022-09-06T15:51:56.465Z,41.61
2022-09-06T15:54:45.183Z,41.56
2022-09-06T15:57:12.674Z,41.56
2022-09-06T15:59:41.202Z,41.68
2022-09-06T16:02:11.124Z,41.73
2022-09-06T16:04:39.472Z,41.67
2022-09-06T16:07:07.884Z,41.82
2022-09-06T16:09:35.821Z,41.74
2022-09-06T16:12:04.302Z,41.81
2022-09-06T16:14:32.484Z,41.62
2022-09-06T16:17:00.462Z,41.85
2022-09-06T16:19:30.282Z,41.74
2022-09-06T16:21:58.951Z,41.75
2022-09-06T16:24:26.971Z,41.43
2022-09-06T16:26:54.991Z,41.89
2022-09-06T16:29:22.857Z,41.48
2022-09-06T16:31:52.781Z,41.66
2022-09-06T16:34:20.855Z,41.60
2022-09-06T16:36:50.597Z,41.46
2022-09-06T16:39:18.503Z,41.72
2022-09-06T16:41:48.233Z,41.74
2022-09-06T16:44:18.510Z,41.55
2022-09-06T16:46:47.580Z,41.62
2022-09-06T16:49:17.093Z,41.63
2022-09-06T16:51:45.721Z,41.71
2022-09-06T16:54:15.710Z,41.79
2022-09-06T16:56:44.394Z,42.00
2022-09-06T16:59:12.903Z,41.88
2022-09-06T17:01:42.021Z,41.81
2022-09-06T17:04:10.422Z,41.85
2022-09-06T17:06:44.705Z,42.13
2022-09-06T17:09:15.971Z,42.40
2022-09-06T17:11:43.955Z,42.37
2022-09-06T17:14:12.220Z,42.31
2022-09-06T17:16:57.923Z,42.64
2022-09-06T17:19:25.989Z,42.45
2022-09-06T17:21:54.094Z,42.52
2022-09-06T17:24:23.664Z,42.80
2022-09-06T17:26:51.830Z,42.88
2022-09-06T17:29:20.289Z,42.85
2022-09-06T17:31:49.712Z,43.00
2022-09-06T17:34:17.850Z,43.04
2022-09-06T17:36:45.934Z,43.02
2022-09-06T17:39:19.583Z,43.29
2022-09-06T17:41:54.270Z,43.29
2022-09-06T17:44:25.500Z,43.57
2022-09-06T17:47:12.804Z,43.76
2022-09-06T17:49:41.565Z,43.78
2022-09-06T17:52:09.736Z,43.85
2022-09-06T17:54:37.570Z,43.99
2022-09-06T17:57:06.990Z,44.01
2022-09-06T17:59:36.023Z,44.21
2022-09-06T18:02:04.824Z,44.21
2022-09-06T18:04:32.754Z,44.27
2022-09-06T18:07:00.646Z,44.67
2022-09-06T18:09:28.985Z,44.93
2022-09-06T18:11:57.077Z,45.17
2022-09-06T18:14:28.526Z,45.22
2022-09-06T18:16:56.848Z,45.18
2022-09-06T18:19:26.176Z,45.58
2022-09-06T18:21:55.076Z,45.65
2022-09-06T18:24:23.085Z,45.57
2022-09-06T18:26:50.914Z,45.77
2022-09-06T18:29:18.789Z,45.63
2022-09-06T18:31:48.142Z,45.96
2022-09-06T18:34:16.983Z,45.91
2022-09-06T18:36:44.908Z,45.86
2022-09-06T18:39:13.388Z,46.29
2022-09-06T18:41:59.151Z,46.45
2022-09-06T18:44:31.862Z,46.47
2022-09-06T18:47:02.761Z,46.59
2022-09-06T18:49:30.869Z,46.60
2022-09-06T18:51:59.013Z,47.01
2022-09-06T18:54:27.076Z,47.16
2022-09-06T18:56:55.588Z,47.17
2022-09-06T18:59:23.577Z,47.44
2022-09-06T19:01:51.708Z,47.31
2022-09-06T19:04:21.203Z,47.16
2022-09-06T19:06:49.063Z,47.41
2022-09-06T19:09:18.045Z,47.38
2022-09-06T19:11:49.421Z,47.54
2022-09-06T19:14:17.259Z,47.64
2022-09-06T19:16:45.431Z,47.71
2022-09-06T19:19:13.614Z,48.07
2022-09-06T19:21:42.940Z,48.00
2022-09-06T19:24:12.551Z,48.15
2022-09-06T19:26:42.756Z,48.40
2022-09-06T19:29:14.243Z,48.62
2022-09-06T19:31:42.549Z,48.67
2022-09-06T19:34:12.308Z,48.57
2022-09-06T19:36:40.480Z,48.65
2022-09-06T19:39:11.825Z,48.98
2022-09-06T19:41:42.983Z,48.77
2022-09-06T19:44:12.604Z,49.00
2022-09-06T19:46:45.635Z,48.96
2022-09-06T19:49:15.316Z,49.35
2022-09-06T19:51:45.274Z,49.37
2022-09-06T19:54:15.606Z,49.61
2022-09-06T19:56:44.252Z,49.52
2022-09-06T19:59:13.281Z,49.54
2022-09-06T20:01:43.146Z,49.92
2022-09-06T20:04:12.827Z,49.98
2022-09-06T20:06:40.894Z,49.71
2022-09-06T20:09:11.136Z,50.00
2022-09-06T20:11:41.617Z,49.79
2022-09-06T20:14:10.056Z,49.97
2022-09-06T20:16:41.500Z,50.05
2022-09-06T20:19:10.651Z,49.98
2022-09-06T20:21:38.538Z,50.20
2022-09-06T20:24:06.681Z,50.38
2022-09-06T20:26:34.657Z,50.52
2022-09-06T20:29:06.803Z,50.81
2022-09-06T20:31:36.589Z,50.46
2022-09-06T20:34:06.397Z,50.83
2022-09-06T20:36:34.515Z,50.70
2022-09-06T20:39:03.243Z,50.78
2022-09-06T20:41:31.595Z,50.78
2022-09-06T20:44:00.816Z,50.93
2022-09-06T20:46:32.429Z,50.66
2022-09-06T20:49:04.421Z,50.72
2022-09-06T20:51:34.190Z,50.92
2022-09-06T20:54:03.489Z,50.95
2022-09-06T20:56:33.249Z,51.25
2022-09-06T20:59:03.107Z,51.17
2022-09-06T21:01:35.135Z,51.53
2022-09-06T21:04:05.490Z,51.32
2022-09-06T21:06:35.678Z,51.52
2022-09-06T21:09:05.080Z,51.38
2022-09-06T21:11:33.051Z,51.52
2022-09-06T21:14:01.056Z,51.29
2022-09-06T21:16:30.618Z,51.47
2022-09-06T21:19:01.732Z,51.49
2022-09-06T21:21:32.174Z,51.63
2022-09-06T21:24:01.731Z,51.75
2022-09-06T21:26:30.168Z,51.84
2022-09-06T21:28:58.867Z,52.22
2022-09-06T21:31:28.674Z,51.89
2022-09-06T21:33:58.183Z,52.05
2022-09-06T21:36:30.006Z,52.14
2022-09-06T21:38:59.415Z,52.22
2022-09-06T21:41:28.433Z,51.92
2022-09-06T21:43:58.354Z,52.05
2022-09-06T21:46:32.917Z,52.19
2022-09-06T21:49:02.965Z,52.10
2022-09-06T21:51:33.007Z,52.28
2022-09-06T21:54:03.734Z,52.20
2022-09-06T21:56:32.349Z,52.48
2022-09-06T21:59:00.695Z,52.29
2022-09-06T22:01:31.724Z,52.26
2022-09-06T22:04:00.259Z,52.17
2022-09-06T22:06:29.936Z,52.18
2022-09-06T22:09:01.257Z,51.96
2022-09-06T22:11:32.508Z,51.97
2022-09-06T22:14:01.478Z,51.99
2022-09-06T22:16:31.108Z,52.18
2022-09-06T22:18:59.235Z,52.13
2022-09-06T22:21:27.509Z,52.15
2022-09-06T22:23:57.399Z,52.21
2022-09-06T22:26:28.288Z,52.11
2022-09-06T22:28:58.120Z,52.16
2022-09-06T22:31:27.858Z,52.00
2022-09-06T22:33:56.417Z,51.98
2022-09-06T22:36:25.527Z,51.95
2022-09-06T22:38:57.484Z,52.03
2022-09-06T22:41:28.592Z,52.09
2022-09-06T22:43:56.617Z,52.21
2022-09-06T22:46:24.859Z,52.22
2022-09-06T22:48:53.155Z,52.46
2022-09-06T22:51:21.026Z,52.28
2022-09-06T22:53:49.195Z,52.36
2022-09-06T22:56:17.431Z,52.47
2022-09-06T22:58:47.899Z,52.58
2022-09-06T23:01:17.260Z,52.61
2022-09-06T23:03:47.984Z,52.66
2022-09-06T23:06:16.037Z,52.66
2022-09-06T23:08:44.632Z,52.53
2022-09-06T23:11:14.118Z,52.63
2022-09-06T23:13:43.639Z,53.08
2022-09-06T23:16:17.210Z,52.94
2022-09-06T23:18:46.137Z,52.99
2022-09-06T23:21:17.021Z,53.16
2022-09-06T23:23:45.148Z,53.07
2022-09-06T23:26:15.123Z,52.98
2022-09-06T23:28:43.711Z,53.18
2022-09-06T23:31:14.816Z,53.18
2022-09-06T23:33:43.129Z,53.09
2022-09-06T23:36:12.739Z,52.88
2022-09-06T23:38:42.552Z,53.07
2022-09-06T23:41:10.834Z,53.03
2022-09-06T23:43:39.040Z,53.13
2022-09-06T23:46:07.060Z,53.24
2022-09-06T23:48:37.440Z,53.27
2022-09-06T23:51:05.498Z,53.31
2022-09-06T23:53:33.969Z,53.36
2022-09-06T23:56:02.021Z,53.39
2022-09-06T23:58:30.031Z,53.41
